Time;durP1;ratioP1;P1;durP2;ratioP2;P2;SDS_P1;SDS_P2;PMS_P1;PMS_P2;Temp;Humidity;BMP_temperature;BMP_pressure;BME280_temperature;BME280_humidity;BME280_pressure;Samples;Min_cycle;Max_cycle;Signal;HPM_P1;HPM_P2
2022/05/15 00:01:04;;;;;;;5.07;2.28;;;11.10;68.10;;;;;;5013718;28;20036;-82
2022/05/15 00:03:30;;;;;;;4.53;2.47;;;11.10;68.20;;;;;;5014683;28;20040;-81
2022/05/15 00:06:03;;;;;;;8.18;2.53;;;11.10;68.10;;;;;;5014608;28;20030;-83
2022/05/15 00:08:31;;;;;;;5.30;2.60;;;11.10;68.00;;;;;;5015034;28;20038;-81
2022/05/15 00:10:58;;;;;;;5.38;2.90;;;11.20;68.00;;;;;;5011387;28;20022;-82
2022/05/15 00:13:25;;;;;;;5.13;2.33;;;11.30;67.90;;;;;;4989785;28;20030;-82
2022/05/15 00:15:51;;;;;;;6.38;3.05;;;11.30;67.70;;;;;;5007656;28;20015;-81
2022/05/15 00:18:19;;;;;;;6.32;2.58;;;11.40;67.60;;;;;;5004265;28;20078;-83
2022/05/15 00:20:46;;;;;;;7.18;2.30;;;11.40;67.60;;;;;;4996756;28;20491;-83
2022/05/15 00:23:13;;;;;;;5.55;2.40;;;11.50;67.60;;;;;;4995157;28;20515;-82
2022/05/15 00:25:40;;;;;;;4.30;2.10;;;11.50;67.50;;;;;;4994926;28;20392;-81
2022/05/15 00:28:07;;;;;;;;;;;11.50;67.50;;;;;;5004198;28;20042;-82
2022/05/15 00:30:35;;;;;;;8.00;2.70;;;11.50;67.10;;;;;;5014031;28;20019;-82
2022/05/15 00:33:01;;;;;;;;;;;11.50;67.50;;;;;;5014513;28;20026;-82
2022/05/15 00:35:27;;;;;;;5.13;2.45;;;11.50;67.10;;;;;;5015066;28;19916;-82
2022/05/15 00:37:53;;;;;;;4.40;2.93;;;11.40;67.40;;;;;;5015366;28;20028;-82
2022/05/15 00:40:21;;;;;;;4.78;2.35;;;11.40;67.50;;;;;;4996807;28;20462;-82
2022/05/15 00:42:47;;;;;;;5.28;2.83;;;11.40;67.60;;;;;;5013997;28;20384;-83
2022/05/15 00:45:15;;;;;;;4.95;2.65;;;11.40;67.70;;;;;;4996240;28;20030;-83
2022/05/15 00:47:41;;;;;;;3.97;2.38;;;11.40;67.80;;;;;;5017945;28;20080;-82
2022/05/15 00:50:11;;;;;;;4.05;2.13;;;11.30;67.90;;;;;;5019863;28;20025;-83
2022/05/15 00:52:40;;;;;;;6.72;2.50;;;11.30;68.20;;;;;;5015529;28;20436;-82
2022/05/15 00:55:22;;;;;;;7.40;2.63;;;11.20;68.40;;;;;;5004810;28;20057;-81
2022/05/15 00:57:54;;;;;;;3.17;2.35;;;11.10;68.60;;;;;;4994060;28;20076;-81
2022/05/15 01:00:26;;;;;;;7.68;2.97;;;11.00;69.60;;;;;;4994259;28;20034;-82
2022/05/15 01:02:55;;;;;;;5.15;2.10;;;11.00;69.90;;;;;;4997670;28;20026;-82
2022/05/15 01:05:21;;;;;;;6.50;2.63;;;10.90;69.50;;;;;;4994412;28;20019;-82
2022/05/15 01:07:47;;;;;;;9.77;2.92;;;10.90;69.60;;;;;;4977576;28;20034;-81
2022/05/15 01:10:13;;;;;;;3.55;2.47;;;10.80;69.70;;;;;;5005141;28;20049;-80
2022/05/15 01:12:41;;;;;;;6.50;2.30;;;10.80;69.80;;;;;;5034825;28;20026;-81
2022/05/15 01:15:16;;;;;;;4.93;2.80;;;10.80;70.10;;;;;;5034027;28;20045;-82
2022/05/15 01:17:42;;;;;;;5.38;2.78;;;10.80;70.30;;;;;;4996138;28;20491;-82
2022/05/15 01:20:12;;;;;;;4.15;2.88;;;10.80;70.30;;;;;;5013224;28;20033;-83
2022/05/15 01:22:39;;;;;;;6.70;2.83;;;10.80;70.50;;;;;;5013410;28;20026;-81
2022/05/15 01:25:11;;;;;;;4.73;2.33;;;10.70;70.90;;;;;;4995370;28;20026;-82
2022/05/15 01:27:37;;;;;;;5.65;3.50;;;10.60;71.00;;;;;;4998097;28;20030;-81
2022/05/15 01:30:05;;;;;;;5.28;2.30;;;10.60;71.30;;;;;;4975950;28;20381;-82
2022/05/15 01:32:31;;;;;;;6.15;3.08;;;10.60;71.50;;;;;;4993637;28;20369;-82
2022/05/15 01:34:57;;;;;;;11.18;3.13;;;10.50;71.60;;;;;;4993491;28;20462;-82
2022/05/15 01:37:23;;;;;;;7.68;3.53;;;10.50;71.80;;;;;;4975548;28;20118;-81
2022/05/15 01:39:49;;;;;;;5.60;3.30;;;10.50;72.00;;;;;;4993290;28;20022;-81
2022/05/15 01:42:15;;;;;;;7.32;3.33;;;10.50;72.10;;;;;;4993320;28;20673;-82
2022/05/15 01:44:40;;;;;;;7.28;3.00;;;10.60;72.20;;;;;;4993302;28;20042;-82
2022/05/15 01:47:07;;;;;;;9.95;2.78;;;10.60;72.20;;;;;;4994966;28;20053;-82
2022/05/15 01:49:32;;;;;;;6.75;3.00;;;10.70;72.10;;;;;;4995069;28;20035;-82
2022/05/15 01:51:58;;;;;;;9.77;2.88;;;10.80;72.10;;;;;;4993892;28;20053;-82
2022/05/15 01:54:24;;;;;;;4.45;2.63;;;10.80;72.10;;;;;;4993429;28;20084;-83
2022/05/15 01:56:49;;;;;;;6.57;2.83;;;10.80;72.00;;;;;;5013127;28;20422;-83
2022/05/15 01:59:15;;;;;;;4.22;2.95;;;10.90;71.80;;;;;;5013886;28;20395;-82
2022/05/15 02:01:41;;;;;;;4.72;2.83;;;11.00;71.70;;;;;;5028977;28;20030;-81
2022/05/15 02:04:07;;;;;;;4.45;2.47;;;11.00;71.60;;;;;;5031837;28;20022;-82
2022/05/15 02:06:34;;;;;;;8.10;3.45;;;11.10;71.40;;;;;;5021484;28;20033;-81
2022/05/15 02:09:00;;;;;;;8.70;2.92;;;11.10;71.20;;;;;;5014927;28;20037;-84
2022/05/15 02:11:26;;;;;;;3.10;2.63;;;11.20;71.00;;;;;;4993819;28;20100;-83
2022/05/15 02:13:52;;;;;;;9.20;2.85;;;11.30;71.00;;;;;;4994524;28;20116;-82
2022/05/15 02:16:18;;;;;;;6.60;2.78;;;11.40;70.60;;;;;;5000841;28;20479;-81
2022/05/15 02:18:44;;;;;;;7.03;3.03;;;11.50;70.40;;;;;;5013733;28;20475;-83
2022/05/15 02:21:10;;;;;;;4.93;2.53;;;11.50;70.20;;;;;;5013878;28;20190;-84
2022/05/15 02:23:35;;;;;;;4.13;3.03;;;11.50;70.00;;;;;;5017746;28;20069;-84
2022/05/15 02:26:01;;;;;;;4.85;3.08;;;11.60;69.90;;;;;;5012519;28;20495;-81
2022/05/15 02:28:27;;;;;;;6.43;2.97;;;11.70;69.80;;;;;;5012066;28;20117;-82
2022/05/15 02:30:53;;;;;;;7.45;3.75;;;11.70;69.60;;;;;;5000690;28;20050;-82
2022/05/15 02:33:18;;;;;;;6.90;2.55;;;11.70;69.60;;;;;;4997395;28;20029;-80
2022/05/15 02:35:44;;;;;;;6.20;2.72;;;11.70;69.60;;;;;;5012128;28;20048;-80
2022/05/15 02:38:10;;;;;;;5.68;2.85;;;11.70;69.40;;;;;;5011620;28;20069;-83
2022/05/15 02:40:36;;;;;;;5.32;2.42;;;11.60;69.40;;;;;;4994849;28;20050;-83
2022/05/15 02:43:02;;;;;;;6.97;2.75;;;11.60;69.50;;;;;;4994769;28;20391;-83
2022/05/15 02:45:28;;;;;;;10.85;2.60;;;11.60;69.70;;;;;;4994513;28;20018;-84
2022/05/15 02:47:54;;;;;;;4.57;2.92;;;11.60;69.90;;;;;;5012155;28;20476;-82
2022/05/15 02:53:05;;;;;;;4.25;2.50;;;11.50;70.30;;;;;;5012300;28;20080;-84
2022/05/15 02:55:32;;;;;;;4.28;2.33;;;11.60;70.80;;;;;;4992249;28;20114;-83
2022/05/15 02:57:58;;;;;;;9.82;3.10;;;11.60;70.40;;;;;;4992516;28;20022;-83
2022/05/15 03:00:25;;;;;;;8.07;2.10;;;11.80;70.50;;;;;;4992484;28;20082;-84
2022/05/15 03:02:51;;;;;;;6.15;2.05;;;12.00;70.00;;;;;;4992387;28;20097;-83
2022/05/15 03:05:19;;;;;;;5.82;2.92;;;12.10;69.10;;;;;;4992531;28;20110;-82
2022/05/15 03:07:45;;;;;;;6.05;2.60;;;12.20;68.60;;;;;;4992737;28;20026;-82
2022/05/15 03:10:13;;;;;;;4.90;2.10;;;12.30;68.10;;;;;;4994872;28;20074;-83
2022/05/15 03:12:39;;;;;;;5.63;2.25;;;12.30;68.00;;;;;;5017641;28;20018;-82
2022/05/15 03:15:06;;;;;;;6.05;2.40;;;12.30;67.70;;;;;;5015880;28;20450;-83
2022/05/15 03:17:34;;;;;;;4.40;1.95;;;12.40;67.60;;;;;;5012194;28;20021;-86
2022/05/15 03:20:01;;;;;;;7.15;2.75;;;12.40;67.40;;;;;;4994359;28;20034;-83
2022/05/15 03:22:26;;;;;;;4.13;2.67;;;12.40;67.40;;;;;;5012066;28;20069;-84
2022/05/15 03:24:52;;;;;;;2.95;2.08;;;12.50;67.30;;;;;;4994324;28;20029;-85
2022/05/15 03:27:18;;;;;;;3.20;2.25;;;12.50;67.30;;;;;;5013343;28;20060;-82
2022/05/15 03:29:43;;;;;;;3.70;2.17;;;12.60;67.40;;;;;;4997271;28;20128;-84
2022/05/15 03:32:09;;;;;;;4.53;2.25;;;12.70;66.90;;;;;;5015355;28;20022;-84
2022/05/15 03:34:35;;;;;;;3.78;2.42;;;12.80;66.40;;;;;;5015607;28;20054;-82
2022/05/15 03:37:01;;;;;;;4.78;2.10;;;13.00;66.40;;;;;;5015312;28;20022;-81
2022/05/15 03:39:26;;;;;;;6.85;2.00;;;13.20;65.90;;;;;;4997559;28;20439;-80
2022/05/15 03:41:52;;;;;;;5.60;2.25;;;13.40;65.80;;;;;;5015088;28;20102;-79
2022/05/15 03:44:19;;;;;;;4.75;2.22;;;13.60;65.10;;;;;;4992870;28;20034;-80
2022/05/15 03:46:44;;;;;;;4.45;2.10;;;13.70;64.80;;;;;;4995075;28;20022;-80
2022/05/15 03:49:13;;;;;;;6.53;2.17;;;13.80;64.30;;;;;;4995090;28;20038;-81
2022/05/15 03:51:39;;;;;;;3.35;1.90;;;13.70;63.80;;;;;;4995302;28;20034;-81
2022/05/15 03:54:05;;;;;;;5.53;2.10;;;13.60;64.20;;;;;;4995410;28;20027;-80
2022/05/15 03:56:52;;;;;;;2.90;2.25;;;13.40;64.50;;;;;;4995918;28;20173;-82
2022/05/15 03:59:25;;;;;;;5.70;2.28;;;13.30;64.80;;;;;;5001885;28;20421;-79
2022/05/15 04:01:51;;;;;;;6.07;2.33;;;13.10;65.50;;;;;;5015044;28;20117;-80
2022/05/15 04:04:17;;;;;;;5.05;2.40;;;13.00;66.00;;;;;;5008360;28;20061;-80
2022/05/15 04:06:43;;;;;;;3.50;1.92;;;13.00;66.40;;;;;;5025175;28;20375;-81
2022/05/15 04:09:09;;;;;;;4.78;2.22;;;13.00;66.30;;;;;;5015636;28;20125;-81
2022/05/15 04:11:35;;;;;;;6.00;2.25;;;13.00;66.60;;;;;;5021000;28;20049;-79
2022/05/15 04:14:01;;;;;;;3.65;2.45;;;13.00;66.70;;;;;;5033667;28;20026;-80
2022/05/15 04:16:27;;;;;;;4.80;2.70;;;13.00;67.20;;;;;;5017303;28;20113;-79
2022/05/15 04:18:52;;;;;;;5.25;2.42;;;13.00;66.90;;;;;;5001465;28;20030;-79
2022/05/15 04:21:18;;;;;;;4.93;2.20;;;13.00;67.00;;;;;;5015762;28;20029;-82
2022/05/15 04:23:44;;;;;;;4.38;2.22;;;13.10;67.20;;;;;;5015093;28;20407;-81
2022/05/15 04:26:10;;;;;;;4.88;2.00;;;13.20;66.80;;;;;;5013990;28;20026;-80
2022/05/15 04:28:36;;;;;;;6.63;2.40;;;13.30;66.90;;;;;;5014059;28;20487;-79
2022/05/15 04:31:02;;;;;;;3.80;2.05;;;13.50;66.80;;;;;;5007721;28;20081;-83
2022/05/15 04:33:28;;;;;;;5.03;2.07;;;13.70;65.90;;;;;;5003409;28;20041;-82
2022/05/15 04:35:55;;;;;;;5.30;2.15;;;13.80;65.40;;;;;;4995543;28;20027;-82
2022/05/15 04:38:20;;;;;;;4.75;1.83;;;14.00;64.80;;;;;;5001480;28;20027;-80
2022/05/15 04:40:46;;;;;;;5.43;2.80;;;14.20;64.80;;;;;;4981822;28;20031;-80
2022/05/15 04:43:12;;;;;;;4.28;2.38;;;14.30;64.30;;;;;;5003829;28;20022;-79
2022/05/15 04:45:37;;;;;;;3.80;1.90;;;14.40;63.80;;;;;;5000350;28;20033;-81
2022/05/15 04:48:04;;;;;;;6.60;2.42;;;14.40;64.20;;;;;;4995820;28;20041;-82
2022/05/15 04:50:29;;;;;;;4.78;2.38;;;14.40;63.80;;;;;;4994397;28;20026;-83
2022/05/15 04:52:55;;;;;;;9.60;2.42;;;14.30;63.70;;;;;;4996588;28;20049;-80
2022/05/15 04:55:21;;;;;;;3.78;1.67;;;14.50;64.70;;;;;;5014213;28;20026;-83
2022/05/15 04:57:47;;;;;;;3.95;2.08;;;15.20;63.10;;;;;;4996037;28;20021;-80
2022/05/15 05:00:17;;;;;;;6.60;1.70;;;16.00;60.30;;;;;;4995964;28;20022;-82
2022/05/15 05:02:43;;;;;;;2.70;1.70;;;17.00;58.30;;;;;;5013873;28;20022;-81
2022/05/15 05:05:10;;;;;;;6.28;2.40;;;18.00;55.50;;;;;;4997256;28;20447;-82
2022/05/15 05:07:36;;;;;;;7.47;2.23;;;18.80;53.30;;;;;;5017405;28;20025;-80
2022/05/15 05:10:02;;;;;;;4.07;2.00;;;19.60;51.20;;;;;;5004282;28;20038;-81
2022/05/15 05:12:28;;;;;;;4.50;1.57;;;20.40;49.60;;;;;;5007126;28;20018;-81
2022/05/15 05:14:53;;;;;;;4.15;1.98;;;21.10;47.60;;;;;;4996612;28;20058;-82
2022/05/15 05:17:19;;;;;;;4.35;1.70;;;21.30;46.40;;;;;;4993644;28;20049;-82
2022/05/15 05:19:45;;;;;;;3.13;1.65;;;21.50;46.10;;;;;;4993455;28;20045;-82
2022/05/15 05:22:11;;;;;;;2.83;2.00;;;21.70;44.90;;;;;;4993422;28;20503;-82
2022/05/15 05:24:36;;;;;;;6.57;2.10;;;21.40;45.10;;;;;;4993546;28;20023;-82
2022/05/15 05:27:02;;;;;;;3.63;1.85;;;20.60;46.10;;;;;;4983952;28;20030;-84
2022/05/15 05:29:28;;;;;;;4.90;2.05;;;20.60;47.90;;;;;;4993789;28;20068;-82
2022/05/15 05:31:54;;;;;;;5.82;2.22;;;21.50;46.40;;;;;;4995215;28;20022;-84
2022/05/15 05:34:20;;;;;;;3.55;1.95;;;22.80;44.70;;;;;;4993334;28;20037;-82
2022/05/15 05:36:46;;;;;;;5.78;2.10;;;23.80;42.40;;;;;;4993361;28;20045;-82
2022/05/15 05:39:12;;;;;;;3.65;1.92;;;24.80;41.10;;;;;;4993295;28;20483;-85
2022/05/15 05:41:38;;;;;;;6.45;2.13;;;25.90;39.50;;;;;;4992841;28;20026;-85
2022/05/15 05:44:04;;;;;;;5.30;2.00;;;26.80;37.60;;;;;;4977591;28;20495;-84
2022/05/15 05:46:30;;;;;;;2.53;1.42;;;27.00;36.60;;;;;;4992684;28;20391;-83
2022/05/15 05:48:57;;;;;;;3.92;1.77;;;26.50;35.70;;;;;;5012539;28;20034;-83
2022/05/15 05:51:23;;;;;;;4.97;2.00;;;25.30;36.70;;;;;;4995057;28;20028;-82
2022/05/15 05:53:49;;;;;;;7.03;1.98;;;24.10;38.70;;;;;;5012865;28;20391;-82
2022/05/15 05:56:15;;;;;;;4.65;2.28;;;23.00;40.40;;;;;;5012637;28;20097;-81
2022/05/15 05:58:41;;;;;;;4.32;1.77;;;22.20;42.10;;;;;;5001516;28;20042;-81
2022/05/15 06:01:07;;;;;;;2.42;1.63;;;21.90;42.40;;;;;;4993456;28;20030;-82
2022/05/15 06:06:17;;;;;;;5.53;2.13;;;21.10;44.30;;;;;;4993512;28;20089;-85
2022/05/15 06:08:43;;;;;;;3.75;1.75;;;21.80;43.60;;;;;;4975364;28;20542;-82
2022/05/15 06:11:10;;;;;;;7.22;2.83;;;22.90;42.20;;;;;;4992951;28;20026;-82
2022/05/15 06:13:36;;;;;;;6.05;2.25;;;24.10;40.20;;;;;;4975169;28;20077;-82
2022/05/15 06:16:02;;;;;;;6.18;3.88;;;24.40;39.00;;;;;;4999120;28;20034;-81
2022/05/15 06:18:28;;;;;;;8.20;1.85;;;24.60;38.70;;;;;;5012747;28;20022;-84
2022/05/15 06:20:54;;;;;;;4.22;2.25;;;25.40;38.50;;;;;;4994733;28;20037;-81
2022/05/15 06:23:21;;;;;;;3.33;1.67;;;26.30;37.10;;;;;;4993341;28;20373;-82
2022/05/15 06:25:47;;;;;;;6.13;1.80;;;27.80;36.20;;;;;;5003072;28;20078;-81
2022/05/15 06:28:13;;;;;;;6.38;2.22;;;29.70;34.30;;;;;;5017710;28;20042;-82
2022/05/15 06:30:39;;;;;;;4.65;1.85;;;30.70;32.50;;;;;;5013586;28;20085;-82
2022/05/15 06:33:06;;;;;;;7.07;2.47;;;30.30;31.50;;;;;;5007260;28;20492;-81
2022/05/15 06:35:32;;;;;;;3.97;1.98;;;28.90;32.20;;;;;;4992991;28;20034;-84
2022/05/15 06:38:03;;;;;;;3.70;1.83;;;28.00;33.30;;;;;;4992427;28;20093;-82
2022/05/15 06:40:29;;;;;;;6.47;2.10;;;28.50;33.50;;;;;;4992280;28;20054;-83
2022/05/15 06:42:57;;;;;;;3.00;1.50;;;29.50;32.40;;;;;;4992618;28;20057;-82
2022/05/15 06:45:23;;;;;;;5.78;1.67;;;30.30;31.60;;;;;;4993027;28;20029;-82
2022/05/15 06:47:49;;;;;;;4.60;2.63;;;30.90;31.10;;;;;;4995181;28;20143;-83
2022/05/15 06:50:15;;;;;;;4.70;1.33;;;31.90;30.50;;;;;;5012752;28;20062;-83
2022/05/15 06:52:41;;;;;;;4.03;1.43;;;32.50;29.90;;;;;;5004210;28;20070;-82
2022/05/15 06:55:10;;;;;;;6.97;2.00;;;32.40;29.50;;;;;;5001534;28;20436;-82
2022/05/15 06:57:36;;;;;;;4.65;1.77;;;33.10;29.60;;;;;;4992576;28;20034;-84
2022/05/15 07:00:10;;;;;;;3.80;1.48;;;33.50;28.70;;;;;;4993031;28;20023;-84
2022/05/15 07:02:37;;;;;;;3.17;1.33;;;33.20;28.40;;;;;;4978970;28;20388;-82
2022/05/15 07:05:04;;;;;;;5.78;1.77;;;33.10;28.50;;;;;;4986134;28;20033;-83
2022/05/15 07:07:30;;;;;;;3.85;1.58;;;33.20;28.40;;;;;;4996415;28;20030;-83
2022/05/15 07:09:56;;;;;;;2.47;1.10;;;33.70;28.30;;;;;;4979090;28;20041;-84
2022/05/15 07:12:24;;;;;;;2.20;1.17;;;34.20;27.80;;;;;;4998278;28;20101;-84
2022/05/15 07:14:50;;;;;;;5.32;1.63;;;33.90;27.70;;;;;;5012074;28;20030;-81
2022/05/15 07:17:16;;;;;;;3.20;1.70;;;33.70;28.00;;;;;;5005281;28;20077;-83
2022/05/15 07:19:42;;;;;;;5.13;1.17;;;34.50;27.90;;;;;;4996744;28;20033;-83
2022/05/15 07:22:09;;;;;;;3.00;1.40;;;34.90;27.50;;;;;;4996297;28;20100;-84
2022/05/15 07:24:38;;;;;;;4.05;1.20;;;36.20;26.30;;;;;;4995389;28;20037;-83
2022/05/15 07:27:06;;;;;;;2.78;1.40;;;36.20;26.60;;;;;;5002589;28;20022;-82
2022/05/15 07:29:33;;;;;;;3.75;1.77;;;35.10;26.20;;;;;;4999426;28;20053;-81
2022/05/15 07:31:59;;;;;;;3.97;1.08;;;32.80;27.30;;;;;;4998113;28;20014;-81
2022/05/15 07:34:25;;;;;;;5.20;1.57;;;32.10;28.10;;;;;;4995277;28;20575;-82
2022/05/15 07:36:52;;;;;;;3.10;1.27;;;32.50;28.20;;;;;;4996000;28;20500;-81
2022/05/15 07:39:22;;;;;;;4.53;1.20;;;33.50;27.90;;;;;;4999275;28;20022;-83
2022/05/15 07:41:49;;;;;;;5.22;1.50;;;34.10;27.30;;;;;;5013645;28;20570;-83
2022/05/15 07:44:16;;;;;;;5.75;1.88;;;34.60;26.80;;;;;;5013539;28;20106;-84
2022/05/15 07:46:41;;;;;;;3.00;1.00;;;34.80;26.50;;;;;;5011543;28;20026;-85
2022/05/15 07:49:12;;;;;;;3.20;1.10;;;34.70;26.30;;;;;;4996405;28;20037;-84
2022/05/15 07:51:43;;;;;;;2.10;1.15;;;33.80;26.70;;;;;;4995690;28;20050;-84
2022/05/15 07:54:09;;;;;;;4.38;1.52;;;32.70;26.60;;;;;;4996168;28;20033;-83
2022/05/15 07:56:35;;;;;;;4.38;1.35;;;30.50;27.50;;;;;;5002640;28;20101;-82
2022/05/15 07:59:00;;;;;;;4.22;1.45;;;29.20;28.60;;;;;;5000295;28;20031;-81
2022/05/15 08:01:26;;;;;;;4.43;2.25;;;28.60;29.40;;;;;;4995479;28;20022;-80
2022/05/15 08:03:52;;;;;;;4.60;1.75;;;28.80;29.40;;;;;;4995922;28;20026;-85
2022/05/15 08:09:05;;;;;;;6.68;2.67;;;26.90;30.20;;;;;;5010492;28;20068;-86
2022/05/15 08:11:31;;;;;;;3.58;1.73;;;25.50;32.00;;;;;;5015964;28;20025;-85
2022/05/15 08:14:00;;;;;;;5.45;1.83;;;24.50;32.60;;;;;;5016067;28;20026;-84
2022/05/15 08:16:26;;;;;;;5.10;1.33;;;23.30;34.50;;;;;;4997557;28;20116;-83
2022/05/15 08:24:21;;;;;;;4.40;1.83;;;20.40;40.20;;;;;;5020628;28;20062;-86
2022/05/15 08:26:48;;;;;;;4.93;2.15;;;19.40;42.50;;;;;;5022448;28;20052;-89
2022/05/15 08:29:14;;;;;;;6.15;1.67;;;18.60;44.30;;;;;;4978183;28;20050;-85
2022/05/15 08:31:41;;;;;;;6.93;2.33;;;18.00;45.80;;;;;;4995323;28;20023;-83
2022/05/15 08:34:08;;;;;;;3.30;1.63;;;17.70;46.50;;;;;;4994592;28;20022;-81
2022/05/15 08:36:35;;;;;;;2.25;1.60;;;17.70;46.40;;;;;;4995821;28;20384;-80
2022/05/15 08:39:01;;;;;;;5.78;2.10;;;17.70;46.40;;;;;;5000269;28;20037;-81
2022/05/15 08:41:47;;;;;;;2.83;1.50;;;18.60;45.90;;;;;;5013106;28;20022;-81
2022/05/15 08:44:21;;;;;;;3.78;1.70;;;19.90;43.20;;;;;;5001190;28;20395;-80
2022/05/15 08:47:09;;;;;;;4.70;1.85;;;20.40;41.90;;;;;;4995702;28;20022;-81
2022/05/15 08:49:43;;;;;;;5.38;2.08;;;20.50;42.10;;;;;;4989149;28;20034;-86
2022/05/15 08:52:17;;;;;;;7.63;1.92;;;19.90;42.80;;;;;;4994577;28;20076;-83
2022/05/15 08:55:04;;;;;;;4.97;1.90;;;19.10;44.20;;;;;;4994067;28;20026;-84
2022/05/15 09:01:00;;;;;;;5.40;1.50;;;17.80;46.70;;;;;;4995354;28;20025;-88
2022/05/15 09:03:29;;;;;;;6.10;2.22;;;17.30;47.70;;;;;;4997110;28;20439;-89
2022/05/15 09:06:22;;;;;;;7.38;2.85;;;16.50;51.40;;;;;;4996962;28;20038;-87
2022/05/15 09:09:06;;;;;;;11.60;4.57;;;14.70;59.60;;;;;;5006087;28;20038;-87
2022/05/15 09:11:56;;;;;;;5.82;2.13;;;13.30;67.00;;;;;;4994437;28;20025;-90
2022/05/15 09:15:00;;;;;;;5.82;1.65;;;12.30;70.00;;;;;;4998356;28;20022;-89
2022/05/15 09:17:34;;;;;;;3.45;1.80;;;11.70;74.30;;;;;;4995351;28;20022;-83
2022/05/15 09:20:30;;;;;;;8.35;3.25;;;11.50;77.60;;;;;;4997641;28;20027;-87
2022/05/15 09:23:25;;;;;;;3.33;2.28;;;11.50;80.70;;;;;;5032943;28;20003;-88
2022/05/15 09:25:59;;;;;;;6.90;2.20;;;11.30;83.40;;;;;;5009331;28;20167;-87
2022/05/15 09:28:27;;;;;;;9.73;3.42;;;11.10;85.50;;;;;;5013343;28;20046;-86
2022/05/15 09:30:56;;;;;;;3.85;1.98;;;11.00;86.20;;;;;;4996135;28;20042;-84
2022/05/15 09:33:35;;;;;;;6.05;2.47;;;11.00;86.60;;;;;;5013075;28;20022;-85
2022/05/15 09:36:22;;;;;;;4.15;1.95;;;11.00;85.10;;;;;;5013795;28;20387;-86
2022/05/15 09:38:51;;;;;;;4.47;1.73;;;11.00;81.70;;;;;;5013365;28;20026;-85
2022/05/15 09:44:31;;;;;;;3.42;1.52;;;11.70;80.10;;;;;;5012952;28;20036;-86
2022/05/15 09:47:21;;;;;;;3.33;1.40;;;12.50;78.80;;;;;;4995012;28;20055;-84
2022/05/15 09:49:48;;;;;;;2.60;1.73;;;13.50;75.00;;;;;;5012852;28;20014;-84
2022/05/15 09:52:24;;;;;;;4.40;1.53;;;14.10;73.70;;;;;;4995606;28;20093;-86
2022/05/15 09:54:50;;;;;;;2.92;1.30;;;14.80;71.80;;;;;;4994139;28;20019;-85
2022/05/15 09:57:27;;;;;;;2.03;1.27;;;15.30;68.00;;;;;;4995734;28;20485;-85
2022/05/15 09:59:58;;;;;;;3.08;1.85;;;17.00;64.70;;;;;;4998999;28;20038;-87
2022/05/15 10:03:03;;;;;;;3.65;1.40;;;19.30;58.50;;;;;;4979380;28;20077;-87
2022/05/15 10:05:32;;;;;;;2.78;1.50;;;22.10;52.00;;;;;;5007827;28;20018;-84
2022/05/15 10:08:10;;;;;;;2.42;1.40;;;23.70;46.90;;;;;;4994624;28;20456;-85
2022/05/15 10:10:39;;;;;;;1.40;1.00;;;24.30;43.70;;;;;;4993898;28;20037;-84
2022/05/15 10:13:42;;;;;;;1.67;1.00;;;24.10;43.30;;;;;;4991486;28;20081;-86
2022/05/15 10:16:18;;;;;;;1.55;1.38;;;25.90;41.70;;;;;;4990849;28;20040;-84
2022/05/15 10:19:11;;;;;;;2.38;1.17;;;27.20;39.50;;;;;;4990767;28;20061;-83
2022/05/15 10:21:42;;;;;;;3.50;1.27;;;28.50;36.20;;;;;;4990542;28;20522;-86
2022/05/15 10:24:27;;;;;;;4.45;1.30;;;27.60;34.00;;;;;;4993600;28;20026;-88
2022/05/15 10:27:04;;;;;;;1.95;0.88;;;26.20;35.70;;;;;;4992282;28;20034;-90
2022/05/15 10:29:37;;;;;;;3.25;0.93;;;24.30;35.90;;;;;;4992631;28;20061;-86
2022/05/15 10:32:10;;;;;;;3.33;1.45;;;22.50;38.20;;;;;;4992663;28;20272;-89
2022/05/15 10:34:36;;;;;;;3.75;1.40;;;21.30;40.90;;;;;;4992183;28;20042;-88
2022/05/15 10:37:04;;;;;;;3.78;1.30;;;20.50;42.70;;;;;;4995861;28;20030;-86
2022/05/15 10:39:35;;;;;;;1.52;1.10;;;19.90;43.50;;;;;;5003870;28;20110;-90
2022/05/15 10:42:01;;;;;;;4.20;1.75;;;19.30;45.10;;;;;;4994089;28;20488;-92
2022/05/15 10:44:50;;;;;;;3.55;1.50;;;18.80;47.20;;;;;;4993828;28;20034;-84
2022/05/15 10:47:30;;;;;;;3.17;1.30;;;18.60;48.60;;;;;;4972244;28;20491;-84
2022/05/15 10:50:07;;;;;;;3.38;1.90;;;18.50;49.10;;;;;;5006443;28;20037;-84
2022/05/15 10:52:33;;;;;;;3.35;1.30;;;18.30;48.20;;;;;;5018064;28;20038;-85
2022/05/15 10:58:23;;;;;;;4.68;1.50;;;17.80;47.50;;;;;;5023411;28;20135;-88
2022/05/15 11:01:00;;;;;;;2.65;1.40;;;17.50;48.30;;;;;;5016438;28;20030;-87
2022/05/15 11:03:48;;;;;;;4.68;1.33;;;17.40;49.50;;;;;;4998851;28;20023;-88
2022/05/15 11:06:36;;;;;;;4.40;1.40;;;17.20;48.80;;;;;;4996036;28;20038;-87
2022/05/15 11:09:30;;;;;;;4.82;1.50;;;17.00;49.10;;;;;;5007390;28;20030;-85
2022/05/15 11:12:02;;;;;;;3.83;1.70;;;16.80;49.90;;;;;;4996327;28;20034;-88
2022/05/15 11:14:55;;;;;;;5.70;1.50;;;16.90;50.30;;;;;;4996826;28;20058;-84
2022/05/15 11:18:14;;;;;;;3.70;1.42;;;17.00;50.70;;;;;;4996680;28;20026;-84
2022/05/15 11:20:48;;;;;;;1.25;0.95;;;17.10;48.20;;;;;;4943291;29;20482;-88
2022/05/15 11:23:28;;;;;;;2.55;1.63;;;17.30;47.50;;;;;;4945766;29;20027;-91
2022/05/15 11:26:08;;;;;;;2.92;1.45;;;17.70;48.00;;;;;;4982415;28;20042;-85
2022/05/15 11:28:47;;;;;;;3.17;1.60;;;18.00;46.80;;;;;;4998184;28;20488;-89
2022/05/15 11:31:18;;;;;;;4.18;1.40;;;17.90;46.80;;;;;;5001164;28;20034;-89
2022/05/15 11:33:48;;;;;;;3.38;1.15;;;18.10;47.20;;;;;;5011889;28;20078;-88
2022/05/15 11:36:36;;;;;;;4.93;1.67;;;18.20;46.60;;;;;;4999746;28;20018;-87
2022/05/15 11:39:12;;;;;;;5.43;1.90;;;18.20;46.70;;;;;;4971446;28;20463;-81
2022/05/15 11:41:38;;;;;;;2.13;1.17;;;18.00;46.80;;;;;;4998672;28;20336;-82
2022/05/15 11:44:18;;;;;;;1.77;1.33;;;17.70;48.10;;;;;;5015355;28;20033;-81
2022/05/15 11:46:47;;;;;;;4.50;1.50;;;17.60;48.10;;;;;;4977884;28;20487;-82
2022/05/15 11:49:26;;;;;;;4.45;1.48;;;17.50;49.30;;;;;;4995213;28;20022;-81
2022/05/15 11:52:04;;;;;;;1.55;1.20;;;17.50;48.10;;;;;;5005958;28;20018;-81
2022/05/15 11:54:41;;;;;;;2.22;1.30;;;17.40;47.90;;;;;;4996762;28;20025;-82
2022/05/15 11:57:13;;;;;;;4.13;1.40;;;17.20;47.90;;;;;;5012635;28;20037;-79
2022/05/15 11:59:51;;;;;;;3.10;1.63;;;17.10;49.30;;;;;;4993782;28;20041;-80
2022/05/15 12:02:20;;;;;;;2.03;1.38;;;17.00;49.50;;;;;;5014888;28;20018;-83
2022/05/15 12:04:46;;;;;;;4.63;1.55;;;16.90;49.40;;;;;;5000337;28;20468;-81
2022/05/15 12:07:14;;;;;;;2.22;1.20;;;16.80;49.00;;;;;;4995102;28;20029;-82
2022/05/15 12:09:40;;;;;;;3.03;1.70;;;16.70;49.20;;;;;;4977913;28;20065;-80
2022/05/15 12:12:23;;;;;;;3.47;1.80;;;16.60;49.50;;;;;;4994786;28;20114;-79
2022/05/15 12:15:16;;;;;;;3.75;1.80;;;16.70;50.50;;;;;;4976820;28;20502;-80
2022/05/15 12:18:10;;;;;;;2.40;0.77;;;16.80;50.50;;;;;;4995214;28;20026;-85
2022/05/15 12:20:42;;;;;;;3.90;1.70;;;16.90;48.80;;;;;;4995223;28;20071;-81
2022/05/15 12:23:35;;;;;;;3.58;1.33;;;16.80;47.90;;;;;;4994439;28;20033;-81
2022/05/15 12:26:40;;;;;;;5.85;2.30;;;16.80;49.00;;;;;;4994600;28;20034;-83
2022/05/15 12:29:34;;;;;;;3.00;1.75;;;16.90;48.80;;;;;;4997523;28;20038;-81
2022/05/15 12:32:00;;;;;;;5.68;1.90;;;16.90;48.80;;;;;;4994145;28;20018;-83
2022/05/15 12:34:42;;;;;;;5.93;1.25;;;17.00;48.10;;;;;;4994258;28;20114;-83
2022/05/15 12:37:18;;;;;;;2.72;0.82;;;17.10;46.20;;;;;;4980430;28;20458;-80
2022/05/15 12:39:49;;;;;;;2.65;1.27;;;17.10;44.90;;;;;;4995847;28;20100;-80
2022/05/15 12:42:33;;;;;;;2.47;1.40;;;17.00;44.70;;;;;;4996952;28;20067;-83
2022/05/15 12:45:04;;;;;;;3.15;1.38;;;17.00;44.90;;;;;;4993329;28;20029;-81
2022/05/15 12:47:33;;;;;;;3.25;1.52;;;17.10;46.00;;;;;;5006832;28;20037;-81
2022/05/15 12:50:11;;;;;;;3.28;1.45;;;17.20;46.10;;;;;;4995861;28;20444;-82
2022/05/15 12:52:39;;;;;;;3.53;1.50;;;17.30;46.40;;;;;;5006242;28;20071;-80
2022/05/15 12:55:09;;;;;;;2.63;1.75;;;17.30;46.90;;;;;;4995453;28;20395;-81
2022/05/15 12:57:46;;;;;;;7.45;2.78;;;17.40;46.80;;;;;;4987602;28;20030;-82
2022/05/15 13:00:16;;;;;;;2.30;1.65;;;17.50;46.60;;;;;;5014095;28;20081;-83
2022/05/15 13:02:42;;;;;;;5.35;2.28;;;17.60;46.70;;;;;;5015775;28;20022;-81
2022/05/15 13:05:20;;;;;;;8.77;2.20;;;17.70;47.80;;;;;;5021476;28;20022;-83
2022/05/15 13:07:52;;;;;;;4.25;2.42;;;17.70;48.00;;;;;;5010678;28;20031;-81
2022/05/15 13:10:22;;;;;;;5.85;2.28;;;17.70;48.70;;;;;;5003639;28;20033;-82
2022/05/15 13:13:12;;;;;;;5.03;1.80;;;17.80;50.30;;;;;;4979815;28;20026;-81
2022/05/15 13:15:39;;;;;;;5.25;2.03;;;17.80;49.00;;;;;;4994490;28;20453;-82
2022/05/15 13:18:09;;;;;;;5.95;1.85;;;17.70;49.40;;;;;;4993812;28;20377;-82
2022/05/15 13:20:40;;;;;;;5.57;2.00;;;17.60;50.00;;;;;;4994293;28;20034;-83
2022/05/15 13:23:11;;;;;;;4.75;1.90;;;17.60;51.70;;;;;;4994159;28;20507;-82
2022/05/15 13:25:48;;;;;;;3.85;2.17;;;17.50;52.60;;;;;;4993424;28;20145;-83
2022/05/15 13:28:15;;;;;;;7.53;2.03;;;17.20;53.40;;;;;;5009913;28;20472;-81